Oakfield, Tennessee
Current Conditions -  °F | °C
As of 8:53 AM on Monday 22 Dec 2014 (Local Time) from KMKL Reporting Station
Overcast Overcast  
Wind Chill: 11°   Ceiling: 1000
Heat Index: 11°   Visibility: 10mi
Dew Point:   Wind: 7mph
Humidity: 83%   Direction: 170°S
Pressure: 29.85"   Gusts: 17mph
Location:  35.72°N, 88.8°W
Report Text: KMKL 221453Z 17006G15KT 10SM OVC010 11/08 A2985 RMK AO2 SLP107 T01110083 58003
Loading
Personal Weather Stations






























Interactive Weather Map New forecast layout! Learn more

10-Day Weather Forecast

Advertisements
Track Severe Weather on mobile